sensor_id;sensor_type;location;lat;lon;timestamp;P1;durP1;ratioP1;P2;durP2;ratioP2
31910;SDS011;18457;52.432;16.914;2023-06-22T00:00:21;21.40;;;15.80;;
31910;SDS011;18457;52.432;16.914;2023-06-22T00:03:14;20.10;;;17.40;;
31910;SDS011;18457;52.432;16.914;2023-06-22T00:05:46;18.60;;;15.90;;
31910;SDS011;18457;52.432;16.914;2023-06-22T00:08:20;19.10;;;16.10;;
31910;SDS011;18457;52.432;16.914;2023-06-22T00:10:52;22.70;;;17.10;;
31910;SDS011;18457;52.432;16.914;2023-06-22T00:13:24;23.30;;;18.20;;
31910;SDS011;18457;52.432;16.914;2023-06-22T00:15:56;23.50;;;18.50;;
31910;SDS011;18457;52.432;16.914;2023-06-22T00:18:28;23.00;;;18.20;;
31910;SDS011;18457;52.432;16.914;2023-06-22T00:21:01;23.80;;;16.90;;
31910;SDS011;18457;52.432;16.914;2023-06-22T00:23:33;20.90;;;17.50;;
31910;SDS011;18457;52.432;16.914;2023-06-22T00:26:05;22.20;;;18.40;;
31910;SDS011;18457;52.432;16.914;2023-06-22T00:28:37;23.90;;;17.40;;
31910;SDS011;18457;52.432;16.914;2023-06-22T00:31:09;30.10;;;18.70;;
31910;SDS011;18457;52.432;16.914;2023-06-22T00:33:42;23.80;;;18.50;;
31910;SDS011;18457;52.432;16.914;2023-06-22T00:36:14;22.30;;;17.70;;
31910;SDS011;18457;52.432;16.914;2023-06-22T00:38:48;22.50;;;17.90;;
31910;SDS011;18457;52.432;16.914;2023-06-22T00:41:20;25.60;;;18.90;;
31910;SDS011;18457;52.432;16.914;2023-06-22T00:43:52;21.10;;;17.80;;
31910;SDS011;18457;52.432;16.914;2023-06-22T00:46:24;26.80;;;20.10;;
31910;SDS011;18457;52.432;16.914;2023-06-22T00:48:56;24.40;;;19.80;;
31910;SDS011;18457;52.432;16.914;2023-06-22T00:51:30;25.20;;;19.10;;
31910;SDS011;18457;52.432;16.914;2023-06-22T00:54:02;27.70;;;19.50;;
31910;SDS011;18457;52.432;16.914;2023-06-22T00:56:35;23.80;;;19.20;;
31910;SDS011;18457;52.432;16.914;2023-06-22T00:59:07;28.90;;;19.40;;
31910;SDS011;18457;52.432;16.914;2023-06-22T01:01:41;24.80;;;18.80;;
31910;SDS011;18457;52.432;16.914;2023-06-22T01:04:13;23.30;;;19.40;;
31910;SDS011;18457;52.432;16.914;2023-06-22T01:06:46;24.40;;;19.60;;
31910;SDS011;18457;52.432;16.914;2023-06-22T01:09:26;29.40;;;20.60;;
31910;SDS011;18457;52.432;16.914;2023-06-22T01:14:40;28.50;;;20.40;;
31910;SDS011;18457;52.432;16.914;2023-06-22T01:17:20;26.60;;;20.60;;
31910;SDS011;18457;52.432;16.914;2023-06-22T01:19:54;26.00;;;18.90;;
31910;SDS011;18457;52.432;16.914;2023-06-22T01:22:28;24.50;;;20.50;;
31910;SDS011;18457;52.432;16.914;2023-06-22T01:25:06;26.20;;;20.30;;
31910;SDS011;18457;52.432;16.914;2023-06-22T01:27:49;28.50;;;20.20;;
31910;SDS011;18457;52.432;16.914;2023-06-22T01:30:30;32.40;;;21.50;;
31910;SDS011;18457;52.432;16.914;2023-06-22T01:33:05;26.10;;;20.70;;
31910;SDS011;18457;52.432;16.914;2023-06-22T01:35:41;28.10;;;21.70;;
31910;SDS011;18457;52.432;16.914;2023-06-22T01:38:14;30.00;;;22.60;;
31910;SDS011;18457;52.432;16.914;2023-06-22T01:40:48;29.80;;;23.60;;
31910;SDS011;18457;52.432;16.914;2023-06-22T01:45:53;34.70;;;22.80;;
31910;SDS011;18457;52.432;16.914;2023-06-22T01:48:26;28.60;;;21.90;;
31910;SDS011;18457;52.432;16.914;2023-06-22T01:50:58;28.80;;;22.20;;
31910;SDS011;18457;52.432;16.914;2023-06-22T01:53:31;32.00;;;22.60;;
31910;SDS011;18457;52.432;16.914;2023-06-22T01:56:03;33.80;;;22.90;;
31910;SDS011;18457;52.432;16.914;2023-06-22T02:01:09;28.80;;;22.60;;
31910;SDS011;18457;52.432;16.914;2023-06-22T02:03:42;25.80;;;21.60;;
31910;SDS011;18457;52.432;16.914;2023-06-22T02:06:20;29.80;;;22.50;;
31910;SDS011;18457;52.432;16.914;2023-06-22T02:08:55;31.80;;;21.90;;
31910;SDS011;18457;52.432;16.914;2023-06-22T02:11:31;27.40;;;22.00;;
31910;SDS011;18457;52.432;16.914;2023-06-22T02:14:09;28.20;;;21.20;;
31910;SDS011;18457;52.432;16.914;2023-06-22T02:16:43;32.00;;;23.20;;
31910;SDS011;18457;52.432;16.914;2023-06-22T02:21:47;29.80;;;24.20;;
31910;SDS011;18457;52.432;16.914;2023-06-22T02:24:21;29.80;;;21.60;;
31910;SDS011;18457;52.432;16.914;2023-06-22T02:26:53;29.50;;;23.70;;
31910;SDS011;18457;52.432;16.914;2023-06-22T02:29:25;30.30;;;22.30;;
31910;SDS011;18457;52.432;16.914;2023-06-22T02:31:57;26.80;;;21.70;;
31910;SDS011;18457;52.432;16.914;2023-06-22T02:37:03;23.50;;;19.50;;
31910;SDS011;18457;52.432;16.914;2023-06-22T02:39:35;22.40;;;18.80;;
31910;SDS011;18457;52.432;16.914;2023-06-22T02:42:09;23.90;;;16.60;;
31910;SDS011;18457;52.432;16.914;2023-06-22T02:44:41;22.70;;;16.90;;
31910;SDS011;18457;52.432;16.914;2023-06-22T02:47:14;20.60;;;16.60;;
31910;SDS011;18457;52.432;16.914;2023-06-22T02:49:46;18.10;;;15.70;;
31910;SDS011;18457;52.432;16.914;2023-06-22T02:52:18;19.20;;;14.80;;
31910;SDS011;18457;52.432;16.914;2023-06-22T02:54:50;17.10;;;12.00;;
31910;SDS011;18457;52.432;16.914;2023-06-22T02:57:22;16.30;;;12.40;;
31910;SDS011;18457;52.432;16.914;2023-06-22T02:59:54;13.20;;;11.00;;
31910;SDS011;18457;52.432;16.914;2023-06-22T03:02:26;15.00;;;10.40;;
31910;SDS011;18457;52.432;16.914;2023-06-22T03:04:58;13.00;;;9.70;;
31910;SDS011;18457;52.432;16.914;2023-06-22T03:07:30;12.10;;;10.50;;
31910;SDS011;18457;52.432;16.914;2023-06-22T03:10:03;17.30;;;10.30;;
31910;SDS011;18457;52.432;16.914;2023-06-22T03:12:36;12.80;;;10.00;;
31910;SDS011;18457;52.432;16.914;2023-06-22T03:15:09;16.40;;;10.20;;
31910;SDS011;18457;52.432;16.914;2023-06-22T03:17:42;12.00;;;10.20;;
31910;SDS011;18457;52.432;16.914;2023-06-22T03:20:14;12.40;;;10.10;;
31910;SDS011;18457;52.432;16.914;2023-06-22T03:22:46;14.70;;;10.20;;
31910;SDS011;18457;52.432;16.914;2023-06-22T03:25:19;13.90;;;10.80;;
31910;SDS011;18457;52.432;16.914;2023-06-22T03:27:50;12.10;;;9.60;;
31910;SDS011;18457;52.432;16.914;2023-06-22T03:30:24;12.00;;;10.20;;
31910;SDS011;18457;52.432;16.914;2023-06-22T03:32:57;17.80;;;9.80;;
31910;SDS011;18457;52.432;16.914;2023-06-22T03:35:29;13.30;;;10.50;;
31910;SDS011;18457;52.432;16.914;2023-06-22T03:38:00;14.20;;;11.40;;
31910;SDS011;18457;52.432;16.914;2023-06-22T03:40:32;17.30;;;11.20;;
31910;SDS011;18457;52.432;16.914;2023-06-22T03:43:04;11.40;;;9.70;;
31910;SDS011;18457;52.432;16.914;2023-06-22T03:45:37;14.10;;;10.40;;
31910;SDS011;18457;52.432;16.914;2023-06-22T03:48:09;13.50;;;10.70;;
31910;SDS011;18457;52.432;16.914;2023-06-22T03:50:41;17.00;;;12.00;;
31910;SDS011;18457;52.432;16.914;2023-06-22T03:53:14;13.20;;;10.80;;
31910;SDS011;18457;52.432;16.914;2023-06-22T03:55:49;13.00;;;11.00;;
31910;SDS011;18457;52.432;16.914;2023-06-22T03:58:21;15.30;;;10.70;;
31910;SDS011;18457;52.432;16.914;2023-06-22T04:00:53;15.80;;;10.60;;
31910;SDS011;18457;52.432;16.914;2023-06-22T04:03:25;13.20;;;10.00;;
31910;SDS011;18457;52.432;16.914;2023-06-22T04:05:57;12.60;;;10.60;;
31910;SDS011;18457;52.432;16.914;2023-06-22T04:08:29;16.40;;;10.20;;
31910;SDS011;18457;52.432;16.914;2023-06-22T04:11:01;14.60;;;9.30;;
31910;SDS011;18457;52.432;16.914;2023-06-22T04:13:34;13.00;;;10.40;;
31910;SDS011;18457;52.432;16.914;2023-06-22T04:16:06;12.30;;;10.00;;
31910;SDS011;18457;52.432;16.914;2023-06-22T04:18:38;14.60;;;10.10;;
31910;SDS011;18457;52.432;16.914;2023-06-22T04:21:11;14.20;;;10.20;;
31910;SDS011;18457;52.432;16.914;2023-06-22T04:23:43;15.20;;;10.20;;
31910;SDS011;18457;52.432;16.914;2023-06-22T04:26:15;13.60;;;10.00;;
31910;SDS011;18457;52.432;16.914;2023-06-22T04:28:50;11.20;;;9.20;;
31910;SDS011;18457;52.432;16.914;2023-06-22T04:31:24;14.00;;;9.30;;
31910;SDS011;18457;52.432;16.914;2023-06-22T04:34:01;15.80;;;9.70;;
31910;SDS011;18457;52.432;16.914;2023-06-22T04:36:37;14.10;;;9.20;;
31910;SDS011;18457;52.432;16.914;2023-06-22T04:39:12;16.20;;;9.20;;
31910;SDS011;18457;52.432;16.914;2023-06-22T04:41:46;15.20;;;9.30;;
31910;SDS011;18457;52.432;16.914;2023-06-22T04:44:21;14.90;;;8.30;;
31910;SDS011;18457;52.432;16.914;2023-06-22T04:47:01;10.40;;;8.50;;
31910;SDS011;18457;52.432;16.914;2023-06-22T04:49:38;12.20;;;8.90;;
31910;SDS011;18457;52.432;16.914;2023-06-22T04:52:13;11.50;;;8.10;;
31910;SDS011;18457;52.432;16.914;2023-06-22T04:54:48;10.70;;;8.40;;
31910;SDS011;18457;52.432;16.914;2023-06-22T04:57:25;11.10;;;8.30;;
31910;SDS011;18457;52.432;16.914;2023-06-22T05:00:03;15.00;;;8.00;;
31910;SDS011;18457;52.432;16.914;2023-06-22T05:02:42;9.80;;;8.00;;
31910;SDS011;18457;52.432;16.914;2023-06-22T05:05:16;9.10;;;7.00;;
31910;SDS011;18457;52.432;16.914;2023-06-22T05:07:49;14.60;;;7.70;;
31910;SDS011;18457;52.432;16.914;2023-06-22T05:10:24;11.20;;;6.60;;
31910;SDS011;18457;52.432;16.914;2023-06-22T05:12:57;10.80;;;6.40;;
31910;SDS011;18457;52.432;16.914;2023-06-22T05:15:30;8.90;;;6.00;;
31910;SDS011;18457;52.432;16.914;2023-06-22T05:18:06;10.50;;;6.60;;
31910;SDS011;18457;52.432;16.914;2023-06-22T05:20:39;7.00;;;5.50;;
31910;SDS011;18457;52.432;16.914;2023-06-22T05:23:11;13.00;;;6.70;;
31910;SDS011;18457;52.432;16.914;2023-06-22T05:25:43;10.10;;;5.90;;
31910;SDS011;18457;52.432;16.914;2023-06-22T05:28:16;11.40;;;6.60;;
31910;SDS011;18457;52.432;16.914;2023-06-22T05:30:52;8.10;;;5.60;;
31910;SDS011;18457;52.432;16.914;2023-06-22T05:33:25;10.20;;;4.70;;
31910;SDS011;18457;52.432;16.914;2023-06-22T05:35:57;10.70;;;6.10;;
31910;SDS011;18457;52.432;16.914;2023-06-22T05:38:29;12.70;;;5.60;;
31910;SDS011;18457;52.432;16.914;2023-06-22T05:41:01;7.20;;;5.30;;
31910;SDS011;18457;52.432;16.914;2023-06-22T05:43:34;11.30;;;6.00;;
31910;SDS011;18457;52.432;16.914;2023-06-22T05:46:06;7.80;;;5.20;;
31910;SDS011;18457;52.432;16.914;2023-06-22T05:48:38;8.20;;;5.10;;
31910;SDS011;18457;52.432;16.914;2023-06-22T05:51:10;8.80;;;5.10;;
31910;SDS011;18457;52.432;16.914;2023-06-22T05:53:42;9.80;;;4.70;;
31910;SDS011;18457;52.432;16.914;2023-06-22T05:56:18;10.70;;;5.40;;
31910;SDS011;18457;52.432;16.914;2023-06-22T05:58:50;7.60;;;6.00;;
31910;SDS011;18457;52.432;16.914;2023-06-22T06:01:22;7.70;;;5.40;;
31910;SDS011;18457;52.432;16.914;2023-06-22T06:03:55;11.80;;;5.70;;
31910;SDS011;18457;52.432;16.914;2023-06-22T06:06:27;7.30;;;5.60;;
31910;SDS011;18457;52.432;16.914;2023-06-22T06:08:59;9.50;;;5.60;;
31910;SDS011;18457;52.432;16.914;2023-06-22T06:11:31;14.10;;;5.70;;
31910;SDS011;18457;52.432;16.914;2023-06-22T06:14:03;9.40;;;6.20;;
31910;SDS011;18457;52.432;16.914;2023-06-22T06:16:36;11.50;;;6.60;;
31910;SDS011;18457;52.432;16.914;2023-06-22T06:19:08;11.40;;;6.60;;
31910;SDS011;18457;52.432;16.914;2023-06-22T06:21:40;11.30;;;6.40;;
31910;SDS011;18457;52.432;16.914;2023-06-22T06:24:14;7.40;;;6.10;;
31910;SDS011;18457;52.432;16.914;2023-06-22T06:26:46;9.50;;;6.30;;
31910;SDS011;18457;52.432;16.914;2023-06-22T06:29:20;19.50;;;6.30;;
31910;SDS011;18457;52.432;16.914;2023-06-22T06:31:54;10.40;;;6.00;;
31910;SDS011;18457;52.432;16.914;2023-06-22T06:34:26;8.40;;;6.30;;
31910;SDS011;18457;52.432;16.914;2023-06-22T06:36:59;10.90;;;6.80;;
31910;SDS011;18457;52.432;16.914;2023-06-22T06:39:30;12.10;;;6.90;;
31910;SDS011;18457;52.432;16.914;2023-06-22T06:42:03;9.20;;;7.10;;
31910;SDS011;18457;52.432;16.914;2023-06-22T06:44:37;13.90;;;7.30;;
31910;SDS011;18457;52.432;16.914;2023-06-22T06:47:09;9.30;;;6.80;;
31910;SDS011;18457;52.432;16.914;2023-06-22T06:49:41;10.90;;;6.90;;
31910;SDS011;18457;52.432;16.914;2023-06-22T06:52:13;11.50;;;7.00;;
31910;SDS011;18457;52.432;16.914;2023-06-22T06:54:45;10.60;;;7.10;;
31910;SDS011;18457;52.432;16.914;2023-06-22T06:57:17;8.30;;;5.60;;
31910;SDS011;18457;52.432;16.914;2023-06-22T06:59:51;13.90;;;5.00;;
31910;SDS011;18457;52.432;16.914;2023-06-22T07:02:23;7.40;;;4.30;;
31910;SDS011;18457;52.432;16.914;2023-06-22T07:04:57;8.00;;;5.10;;
31910;SDS011;18457;52.432;16.914;2023-06-22T07:07:29;8.40;;;5.70;;
31910;SDS011;18457;52.432;16.914;2023-06-22T07:10:05;9.70;;;5.30;;
31910;SDS011;18457;52.432;16.914;2023-06-22T07:12:39;9.30;;;5.00;;
31910;SDS011;18457;52.432;16.914;2023-06-22T07:15:11;10.50;;;5.70;;
31910;SDS011;18457;52.432;16.914;2023-06-22T07:17:43;8.20;;;5.50;;
31910;SDS011;18457;52.432;16.914;2023-06-22T07:20:15;5.50;;;4.50;;
31910;SDS011;18457;52.432;16.914;2023-06-22T07:22:49;9.30;;;6.20;;
31910;SDS011;18457;52.432;16.914;2023-06-22T07:25:21;7.20;;;5.90;;
31910;SDS011;18457;52.432;16.914;2023-06-22T07:28:00;9.20;;;6.10;;
31910;SDS011;18457;52.432;16.914;2023-06-22T07:30:34;12.30;;;5.50;;
31910;SDS011;18457;52.432;16.914;2023-06-22T07:33:08;9.00;;;5.40;;
31910;SDS011;18457;52.432;16.914;2023-06-22T07:35:41;10.90;;;5.50;;
31910;SDS011;18457;52.432;16.914;2023-06-22T07:38:15;7.20;;;5.30;;
31910;SDS011;18457;52.432;16.914;2023-06-22T07:40:49;9.60;;;5.80;;
31910;SDS011;18457;52.432;16.914;2023-06-22T07:43:23;7.40;;;5.70;;
31910;SDS011;18457;52.432;16.914;2023-06-22T07:45:57;7.20;;;5.50;;
31910;SDS011;18457;52.432;16.914;2023-06-22T07:48:31;15.10;;;6.10;;
31910;SDS011;18457;52.432;16.914;2023-06-22T07:51:08;7.20;;;6.00;;
31910;SDS011;18457;52.432;16.914;2023-06-22T07:53:46;9.20;;;6.90;;
31910;SDS011;18457;52.432;16.914;2023-06-22T07:56:22;7.30;;;5.50;;
31910;SDS011;18457;52.432;16.914;2023-06-22T07:58:56;11.60;;;6.30;;
31910;SDS011;18457;52.432;16.914;2023-06-22T08:01:33;7.30;;;5.10;;
31910;SDS011;18457;52.432;16.914;2023-06-22T08:04:06;9.70;;;5.60;;
31910;SDS011;18457;52.432;16.914;2023-06-22T08:06:39;7.70;;;5.20;;
31910;SDS011;18457;52.432;16.914;2023-06-22T08:09:12;9.40;;;5.20;;
31910;SDS011;18457;52.432;16.914;2023-06-22T08:11:45;7.00;;;5.40;;
31910;SDS011;18457;52.432;16.914;2023-06-22T08:14:17;7.60;;;4.60;;
31910;SDS011;18457;52.432;16.914;2023-06-22T08:16:49;8.10;;;5.20;;
31910;SDS011;18457;52.432;16.914;2023-06-22T08:19:21;8.60;;;5.60;;
31910;SDS011;18457;52.432;16.914;2023-06-22T08:21:53;9.10;;;5.40;;
31910;SDS011;18457;52.432;16.914;2023-06-22T08:24:25;12.30;;;5.10;;
31910;SDS011;18457;52.432;16.914;2023-06-22T08:26:59;10.10;;;5.00;;
31910;SDS011;18457;52.432;16.914;2023-06-22T08:29:31;11.20;;;5.70;;
31910;SDS011;18457;52.432;16.914;2023-06-22T08:32:03;9.60;;;6.00;;
31910;SDS011;18457;52.432;16.914;2023-06-22T08:34:36;9.50;;;6.70;;
31910;SDS011;18457;52.432;16.914;2023-06-22T08:37:11;10.10;;;5.40;;
31910;SDS011;18457;52.432;16.914;2023-06-22T08:39:43;9.10;;;4.90;;
31910;SDS011;18457;52.432;16.914;2023-06-22T08:42:16;9.50;;;5.10;;
31910;SDS011;18457;52.432;16.914;2023-06-22T08:44:48;8.10;;;4.90;;
31910;SDS011;18457;52.432;16.914;2023-06-22T08:47:20;9.20;;;4.40;;
31910;SDS011;18457;52.432;16.914;2023-06-22T08:49:52;6.50;;;4.60;;
31910;SDS011;18457;52.432;16.914;2023-06-22T08:52:27;7.00;;;4.00;;
31910;SDS011;18457;52.432;16.914;2023-06-22T08:54:59;5.00;;;4.10;;
31910;SDS011;18457;52.432;16.914;2023-06-22T08:57:32;6.70;;;4.30;;
31910;SDS011;18457;52.432;16.914;2023-06-22T09:00:09;7.80;;;4.10;;
31910;SDS011;18457;52.432;16.914;2023-06-22T09:02:45;5.50;;;4.00;;
31910;SDS011;18457;52.432;16.914;2023-06-22T09:05:21;5.20;;;4.10;;
31910;SDS011;18457;52.432;16.914;2023-06-22T09:07:55;4.90;;;4.20;;
31910;SDS011;18457;52.432;16.914;2023-06-22T09:10:28;5.70;;;3.60;;
31910;SDS011;18457;52.432;16.914;2023-06-22T09:13:01;5.60;;;3.40;;
31910;SDS011;18457;52.432;16.914;2023-06-22T09:15:33;4.70;;;2.50;;
31910;SDS011;18457;52.432;16.914;2023-06-22T09:18:05;4.90;;;2.90;;
31910;SDS011;18457;52.432;16.914;2023-06-22T09:20:40;7.00;;;3.60;;
31910;SDS011;18457;52.432;16.914;2023-06-22T09:23:12;3.50;;;2.70;;
31910;SDS011;18457;52.432;16.914;2023-06-22T09:28:17;5.80;;;4.30;;
31910;SDS011;18457;52.432;16.914;2023-06-22T09:33:21;5.90;;;3.50;;
31910;SDS011;18457;52.432;16.914;2023-06-22T09:35:55;4.80;;;2.90;;
31910;SDS011;18457;52.432;16.914;2023-06-22T09:38:28;5.70;;;3.30;;
31910;SDS011;18457;52.432;16.914;2023-06-22T09:41:02;5.60;;;3.70;;
31910;SDS011;18457;52.432;16.914;2023-06-22T09:43:36;6.90;;;3.60;;
31910;SDS011;18457;52.432;16.914;2023-06-22T09:46:10;4.60;;;4.00;;
31910;SDS011;18457;52.432;16.914;2023-06-22T09:48:46;8.70;;;3.90;;
31910;SDS011;18457;52.432;16.914;2023-06-22T09:51:21;6.10;;;3.60;;
31910;SDS011;18457;52.432;16.914;2023-06-22T09:53:58;5.80;;;3.60;;
31910;SDS011;18457;52.432;16.914;2023-06-22T09:56:31;4.50;;;3.60;;
31910;SDS011;18457;52.432;16.914;2023-06-22T09:59:08;6.10;;;3.90;;
31910;SDS011;18457;52.432;16.914;2023-06-22T10:01:50;3.90;;;3.40;;
31910;SDS011;18457;52.432;16.914;2023-06-22T10:04:24;3.30;;;2.90;;
31910;SDS011;18457;52.432;16.914;2023-06-22T10:07:01;6.60;;;3.70;;
31910;SDS011;18457;52.432;16.914;2023-06-22T10:09:35;5.90;;;3.90;;
31910;SDS011;18457;52.432;16.914;2023-06-22T10:12:09;6.60;;;3.40;;
31910;SDS011;18457;52.432;16.914;2023-06-22T10:14:44;8.60;;;3.30;;
31910;SDS011;18457;52.432;16.914;2023-06-22T10:17:18;5.00;;;3.90;;
31910;SDS011;18457;52.432;16.914;2023-06-22T10:19:52;4.00;;;3.30;;
31910;SDS011;18457;52.432;16.914;2023-06-22T10:22:26;4.80;;;2.80;;
31910;SDS011;18457;52.432;16.914;2023-06-22T10:25:01;4.00;;;3.30;;
31910;SDS011;18457;52.432;16.914;2023-06-22T10:27:36;5.70;;;3.70;;
31910;SDS011;18457;52.432;16.914;2023-06-22T10:30:12;8.40;;;3.70;;
31910;SDS011;18457;52.432;16.914;2023-06-22T10:32:47;4.70;;;4.20;;
31910;SDS011;18457;52.432;16.914;2023-06-22T10:35:20;5.00;;;3.90;;
31910;SDS011;18457;52.432;16.914;2023-06-22T10:37:54;5.20;;;3.10;;
31910;SDS011;18457;52.432;16.914;2023-06-22T10:40:29;5.30;;;3.70;;
31910;SDS011;18457;52.432;16.914;2023-06-22T10:43:04;4.60;;;3.50;;
31910;SDS011;18457;52.432;16.914;2023-06-22T10:45:37;6.60;;;4.10;;
31910;SDS011;18457;52.432;16.914;2023-06-22T10:48:11;6.10;;;4.10;;
31910;SDS011;18457;52.432;16.914;2023-06-22T10:50:46;6.60;;;4.20;;
31910;SDS011;18457;52.432;16.914;2023-06-22T10:53:22;5.60;;;4.10;;
31910;SDS011;18457;52.432;16.914;2023-06-22T10:55:56;5.40;;;3.80;;
31910;SDS011;18457;52.432;16.914;2023-06-22T10:58:31;30.20;;;5.60;;
31910;SDS011;18457;52.432;16.914;2023-06-22T11:01:11;5.70;;;4.30;;
31910;SDS011;18457;52.432;16.914;2023-06-22T11:04:07;5.50;;;3.80;;
31910;SDS011;18457;52.432;16.914;2023-06-22T11:06:40;11.10;;;4.60;;
31910;SDS011;18457;52.432;16.914;2023-06-22T11:09:14;4.50;;;4.00;;
31910;SDS011;18457;52.432;16.914;2023-06-22T11:11:56;5.80;;;4.40;;
31910;SDS011;18457;52.432;16.914;2023-06-22T11:14:30;6.30;;;4.50;;
31910;SDS011;18457;52.432;16.914;2023-06-22T11:19:33;14.00;;;4.80;;
31910;SDS011;18457;52.432;16.914;2023-06-22T11:22:07;5.60;;;4.30;;
31910;SDS011;18457;52.432;16.914;2023-06-22T11:24:41;7.40;;;4.70;;
31910;SDS011;18457;52.432;16.914;2023-06-22T11:27:14;5.10;;;4.10;;
31910;SDS011;18457;52.432;16.914;2023-06-22T11:29:48;6.40;;;4.00;;
31910;SDS011;18457;52.432;16.914;2023-06-22T11:32:23;6.80;;;4.90;;
31910;SDS011;18457;52.432;16.914;2023-06-22T11:34:56;6.60;;;4.40;;
31910;SDS011;18457;52.432;16.914;2023-06-22T11:37:29;5.80;;;4.60;;
31910;SDS011;18457;52.432;16.914;2023-06-22T11:40:03;5.10;;;4.10;;
31910;SDS011;18457;52.432;16.914;2023-06-22T11:42:39;7.90;;;4.10;;
31910;SDS011;18457;52.432;16.914;2023-06-22T11:45:14;7.00;;;4.60;;
31910;SDS011;18457;52.432;16.914;2023-06-22T11:47:49;6.50;;;4.70;;
31910;SDS011;18457;52.432;16.914;2023-06-22T11:50:24;4.50;;;3.90;;
31910;SDS011;18457;52.432;16.914;2023-06-22T11:53:00;6.10;;;4.40;;
31910;SDS011;18457;52.432;16.914;2023-06-22T11:55:34;5.10;;;4.50;;
31910;SDS011;18457;52.432;16.914;2023-06-22T11:58:08;10.80;;;5.60;;
31910;SDS011;18457;52.432;16.914;2023-06-22T12:00:44;6.20;;;4.30;;
31910;SDS011;18457;52.432;16.914;2023-06-22T12:03:21;5.50;;;4.60;;
31910;SDS011;18457;52.432;16.914;2023-06-22T12:05:55;12.20;;;4.30;;
31910;SDS011;18457;52.432;16.914;2023-06-22T12:08:32;6.30;;;5.10;;
31910;SDS011;18457;52.432;16.914;2023-06-22T12:11:06;5.90;;;4.60;;
31910;SDS011;18457;52.432;16.914;2023-06-22T12:13:39;7.40;;;4.50;;
31910;SDS011;18457;52.432;16.914;2023-06-22T12:16:14;5.80;;;5.00;;
31910;SDS011;18457;52.432;16.914;2023-06-22T12:18:50;5.60;;;4.60;;
31910;SDS011;18457;52.432;16.914;2023-06-22T12:21:23;7.20;;;4.30;;
31910;SDS011;18457;52.432;16.914;2023-06-22T12:23:55;5.40;;;4.90;;
31910;SDS011;18457;52.432;16.914;2023-06-22T12:26:27;7.90;;;5.00;;
31910;SDS011;18457;52.432;16.914;2023-06-22T12:28:59;5.50;;;4.50;;
31910;SDS011;18457;52.432;16.914;2023-06-22T12:31:31;4.80;;;4.30;;
31910;SDS011;18457;52.432;16.914;2023-06-22T12:34:03;6.40;;;4.80;;
31910;SDS011;18457;52.432;16.914;2023-06-22T12:36:35;9.20;;;4.80;;
31910;SDS011;18457;52.432;16.914;2023-06-22T12:39:08;5.60;;;5.00;;
31910;SDS011;18457;52.432;16.914;2023-06-22T12:41:42;5.70;;;4.40;;
31910;SDS011;18457;52.432;16.914;2023-06-22T12:44:15;5.20;;;4.60;;
31910;SDS011;18457;52.432;16.914;2023-06-22T12:46:48;6.60;;;4.50;;
31910;SDS011;18457;52.432;16.914;2023-06-22T12:49:23;5.60;;;4.80;;
31910;SDS011;18457;52.432;16.914;2023-06-22T12:51:58;5.60;;;4.70;;
31910;SDS011;18457;52.432;16.914;2023-06-22T12:57:25;6.00;;;4.70;;
31910;SDS011;18457;52.432;16.914;2023-06-22T12:59:59;25.60;;;5.60;;
31910;SDS011;18457;52.432;16.914;2023-06-22T13:02:35;5.10;;;4.60;;
31910;SDS011;18457;52.432;16.914;2023-06-22T13:05:08;8.40;;;5.40;;
31910;SDS011;18457;52.432;16.914;2023-06-22T13:07:40;13.70;;;5.00;;
31910;SDS011;18457;52.432;16.914;2023-06-22T13:10:13;5.90;;;5.00;;
31910;SDS011;18457;52.432;16.914;2023-06-22T13:12:45;6.80;;;4.80;;
31910;SDS011;18457;52.432;16.914;2023-06-22T13:15:18;6.60;;;4.90;;
31910;SDS011;18457;52.432;16.914;2023-06-22T13:17:51;6.80;;;4.60;;
31910;SDS011;18457;52.432;16.914;2023-06-22T13:22:54;7.40;;;5.40;;
31910;SDS011;18457;52.432;16.914;2023-06-22T13:25:28;7.20;;;4.90;;
31910;SDS011;18457;52.432;16.914;2023-06-22T13:28:02;6.50;;;5.20;;
31910;SDS011;18457;52.432;16.914;2023-06-22T13:30:41;6.20;;;5.20;;
31910;SDS011;18457;52.432;16.914;2023-06-22T13:33:17;6.10;;;5.50;;
31910;SDS011;18457;52.432;16.914;2023-06-22T13:35:50;6.40;;;5.80;;
31910;SDS011;18457;52.432;16.914;2023-06-22T13:38:23;7.20;;;5.10;;
31910;SDS011;18457;52.432;16.914;2023-06-22T13:40:58;5.60;;;5.00;;
31910;SDS011;18457;52.432;16.914;2023-06-22T13:43:32;5.10;;;4.60;;
31910;SDS011;18457;52.432;16.914;2023-06-22T13:46:06;7.10;;;5.10;;
31910;SDS011;18457;52.432;16.914;2023-06-22T13:48:39;9.20;;;5.30;;
31910;SDS011;18457;52.432;16.914;2023-06-22T13:51:13;9.40;;;4.80;;
31910;SDS011;18457;52.432;16.914;2023-06-22T13:53:47;6.80;;;4.80;;
31910;SDS011;18457;52.432;16.914;2023-06-22T13:56:21;6.00;;;5.00;;
31910;SDS011;18457;52.432;16.914;2023-06-22T13:58:55;5.40;;;4.50;;
31910;SDS011;18457;52.432;16.914;2023-06-22T14:01:28;7.60;;;4.70;;
31910;SDS011;18457;52.432;16.914;2023-06-22T14:04:02;6.90;;;5.80;;
31910;SDS011;18457;52.432;16.914;2023-06-22T14:06:37;5.50;;;5.00;;
31910;SDS011;18457;52.432;16.914;2023-06-22T14:09:11;9.10;;;6.60;;
31910;SDS011;18457;52.432;16.914;2023-06-22T14:11:43;7.90;;;5.70;;
31910;SDS011;18457;52.432;16.914;2023-06-22T14:14:15;8.60;;;5.60;;
31910;SDS011;18457;52.432;16.914;2023-06-22T14:16:47;7.80;;;5.10;;
31910;SDS011;18457;52.432;16.914;2023-06-22T14:19:20;5.90;;;5.30;;
31910;SDS011;18457;52.432;16.914;2023-06-22T14:21:53;6.80;;;5.80;;
31910;SDS011;18457;52.432;16.914;2023-06-22T14:24:27;8.00;;;5.40;;
31910;SDS011;18457;52.432;16.914;2023-06-22T14:27:01;6.30;;;5.70;;
31910;SDS011;18457;52.432;16.914;2023-06-22T14:29:38;5.60;;;5.00;;
31910;SDS011;18457;52.432;16.914;2023-06-22T14:32:12;6.10;;;5.30;;
31910;SDS011;18457;52.432;16.914;2023-06-22T14:34:47;5.50;;;5.00;;
31910;SDS011;18457;52.432;16.914;2023-06-22T14:37:20;8.30;;;5.20;;
31910;SDS011;18457;52.432;16.914;2023-06-22T14:40:09;11.60;;;5.30;;
31910;SDS011;18457;52.432;16.914;2023-06-22T14:42:43;10.50;;;5.50;;
31910;SDS011;18457;52.432;16.914;2023-06-22T14:45:19;5.70;;;5.20;;
31910;SDS011;18457;52.432;16.914;2023-06-22T14:47:54;5.40;;;4.90;;
31910;SDS011;18457;52.432;16.914;2023-06-22T14:50:30;7.10;;;5.20;;
31910;SDS011;18457;52.432;16.914;2023-06-22T14:53:06;7.10;;;4.90;;
31910;SDS011;18457;52.432;16.914;2023-06-22T14:55:40;7.00;;;5.00;;
31910;SDS011;18457;52.432;16.914;2023-06-22T14:58:13;5.20;;;4.60;;
31910;SDS011;18457;52.432;16.914;2023-06-22T15:00:47;6.50;;;5.00;;
31910;SDS011;18457;52.432;16.914;2023-06-22T15:03:22;6.40;;;5.30;;
31910;SDS011;18457;52.432;16.914;2023-06-22T15:05:58;5.70;;;5.10;;
31910;SDS011;18457;52.432;16.914;2023-06-22T15:08:31;6.10;;;5.30;;
31910;SDS011;18457;52.432;16.914;2023-06-22T15:11:04;7.90;;;5.50;;
31910;SDS011;18457;52.432;16.914;2023-06-22T15:13:40;5.80;;;5.20;;
31910;SDS011;18457;52.432;16.914;2023-06-22T15:16:13;6.00;;;5.00;;
31910;SDS011;18457;52.432;16.914;2023-06-22T15:18:46;6.00;;;5.10;;
31910;SDS011;18457;52.432;16.914;2023-06-22T15:21:19;5.30;;;4.70;;
31910;SDS011;18457;52.432;16.914;2023-06-22T15:23:53;6.50;;;5.00;;
31910;SDS011;18457;52.432;16.914;2023-06-22T15:26:26;8.80;;;5.10;;
31910;SDS011;18457;52.432;16.914;2023-06-22T15:29:00;5.90;;;5.00;;